Time;durP1;ratioP1;P1;durP2;ratioP2;P2;SDS_P1;SDS_P2;PMS_P1;PMS_P2;Temp;Humidity;BMP_temperature;BMP_pressure;BME280_temperature;BME280_humidity;BME280_pressure;Samples;Min_cycle;Max_cycle;Signal;HPM_P1;HPM_P2
2023/03/02 00:01:03;;;;;;;30.60;14.13;;;1.30;1.00;;;;;;5027032;28;20514;-52
2023/03/02 00:03:31;;;;;;;30.63;15.60;;;1.40;1.00;;;;;;5026164;28;20191;-52
2023/03/02 00:05:57;;;;;;;30.60;14.20;;;1.30;1.00;;;;;;5023281;28;20448;-52
2023/03/02 00:08:24;;;;;;;27.10;13.80;;;1.30;1.00;;;;;;5028593;28;20439;-52
2023/03/02 00:10:49;;;;;;;28.13;13.10;;;1.30;1.00;;;;;;5029095;28;20436;-52
2023/03/02 00:13:15;;;;;;;32.37;14.67;;;1.30;1.00;;;;;;5026962;28;20787;-52
2023/03/02 00:15:41;;;;;;;25.30;12.83;;;1.20;1.00;;;;;;5028956;28;20198;-53
2023/03/02 00:18:06;;;;;;;29.90;14.47;;;1.30;1.00;;;;;;5028823;28;20242;-52
2023/03/02 00:20:33;;;;;;;29.13;12.87;;;1.20;1.00;;;;;;5026858;28;20239;-51
2023/03/02 00:22:59;;;;;;;23.43;12.83;;;1.10;1.00;;;;;;5024182;28;20713;-52
2023/03/02 00:25:24;;;;;;;27.90;12.90;;;1.10;1.00;;;;;;5023487;28;20439;-52
2023/03/02 00:27:50;;;;;;;27.93;12.93;;;1.10;1.00;;;;;;5024143;28;20188;-52
2023/03/02 00:30:16;;;;;;;37.90;13.60;;;1.00;1.00;;;;;;5027122;28;20199;-52
2023/03/02 00:32:43;;;;;;;25.87;12.53;;;1.10;1.00;;;;;;5028231;28;20241;-56
2023/03/02 00:35:08;;;;;;;37.10;13.90;;;1.00;1.00;;;;;;5027039;28;20432;-52
2023/03/02 00:37:35;;;;;;;28.60;12.80;;;1.00;1.00;;;;;;5025967;28;20794;-51
2023/03/02 00:40:03;;;;;;;26.17;13.90;;;1.00;1.00;;;;;;5026281;28;20216;-52
2023/03/02 00:42:29;;;;;;;24.17;12.47;;;1.00;1.00;;;;;;5025879;28;21011;-51
2023/03/02 00:44:58;;;;;;;28.40;12.87;;;0.90;1.00;;;;;;5026635;28;20474;-52
2023/03/02 00:47:23;;;;;;;24.77;11.90;;;0.80;1.00;;;;;;5027546;28;20263;-52
2023/03/02 00:49:49;;;;;;;30.77;11.97;;;0.80;1.00;;;;;;5027447;28;20525;-51
2023/03/02 00:52:16;;;;;;;31.17;13.67;;;0.80;1.00;;;;;;5027491;28;20584;-51
2023/03/02 00:54:42;;;;;;;25.90;12.60;;;0.80;1.00;;;;;;5026409;28;20205;-52
2023/03/02 00:57:08;;;;;;;31.00;12.50;;;0.70;1.00;;;;;;5028087;28;20440;-52
2023/03/02 00:59:36;;;;;;;26.07;12.73;;;0.70;1.00;;;;;;5026166;28;20216;-52
2023/03/02 01:02:02;;;;;;;26.50;12.87;;;0.70;1.00;;;;;;5025224;28;20450;-51
2023/03/02 01:04:31;;;;;;;21.63;12.00;;;0.70;1.00;;;;;;5027134;28;20921;-52
2023/03/02 01:06:58;;;;;;;45.80;13.10;;;0.80;1.00;;;;;;5025774;28;20434;-52
2023/03/02 01:09:24;;;;;;;100.03;38.77;;;0.70;1.00;;;;;;5026332;28;20437;-52
2023/03/02 01:11:50;;;;;;;29.10;12.17;;;0.70;1.00;;;;;;5026502;28;20442;-52
2023/03/02 01:14:16;;;;;;;30.77;11.30;;;0.60;1.00;;;;;;5026583;28;20843;-51
2023/03/02 01:16:41;;;;;;;44.43;11.13;;;0.50;1.00;;;;;;5026728;28;20662;-53
2023/03/02 01:19:07;;;;;;;18.83;10.57;;;0.50;1.00;;;;;;5024968;28;20188;-51
2023/03/02 01:21:32;;;;;;;23.93;11.10;;;0.50;1.00;;;;;;5029149;28;20194;-51
2023/03/02 01:23:58;;;;;;;20.30;10.23;;;0.50;1.00;;;;;;5026228;28;20219;-52
2023/03/02 01:26:23;;;;;;;19.80;10.50;;;0.50;1.00;;;;;;5025564;28;20661;-51
2023/03/02 01:28:54;;;;;;;22.53;10.23;;;0.50;1.00;;;;;;5025972;28;20205;-51
2023/03/02 01:31:20;;;;;;;21.83;10.80;;;0.50;1.00;;;;;;5022861;28;20210;-51
2023/03/02 01:33:46;;;;;;;24.37;10.77;;;0.60;1.00;;;;;;5026305;28;20789;-51
2023/03/02 01:36:11;;;;;;;21.27;11.33;;;0.60;1.00;;;;;;5024987;28;20445;-51
2023/03/02 01:38:37;;;;;;;21.67;9.90;;;0.60;1.00;;;;;;5026948;28;20645;-51
2023/03/02 01:41:02;;;;;;;22.47;11.50;;;0.60;1.00;;;;;;5024061;28;20224;-51
2023/03/02 01:43:28;;;;;;;22.57;11.00;;;0.60;1.00;;;;;;5024516;28;20270;-51
2023/03/02 01:45:58;;;;;;;19.17;9.93;;;0.60;1.00;;;;;;5024946;28;20186;-51
2023/03/02 01:48:39;;;;;;;24.13;10.83;;;0.60;1.00;;;;;;5021109;28;20198;-51
2023/03/02 01:51:06;;;;;;;29.43;11.40;;;0.50;1.00;;;;;;5023373;28;21069;-51
2023/03/02 01:53:34;;;;;;;24.30;11.67;;;0.60;1.00;;;;;;5024956;28;20497;-51
2023/03/02 01:56:02;;;;;;;22.00;11.07;;;0.60;1.00;;;;;;5024485;28;20920;-51
2023/03/02 01:58:31;;;;;;;28.30;12.17;;;0.60;1.00;;;;;;5026485;28;20950;-51
2023/03/02 02:00:57;;;;;;;20.57;11.07;;;0.60;1.00;;;;;;5026833;28;20929;-51
2023/03/02 02:03:25;;;;;;;24.63;12.30;;;0.60;1.00;;;;;;5027296;28;20948;-51
2023/03/02 02:06:10;;;;;;;26.00;11.57;;;0.70;1.00;;;;;;5026962;28;20442;-51
2023/03/02 02:08:37;;;;;;;24.80;12.20;;;0.70;1.00;;;;;;5022913;28;20429;-51
2023/03/02 02:11:03;;;;;;;25.43;12.20;;;0.60;1.00;;;;;;5027041;28;20435;-51
2023/03/02 02:13:29;;;;;;;22.13;11.00;;;0.60;1.00;;;;;;5025065;28;20505;-51
2023/03/02 02:15:54;;;;;;;24.63;11.50;;;0.70;1.00;;;;;;5026230;28;20275;-51
2023/03/02 02:18:20;;;;;;;30.27;11.70;;;0.70;1.00;;;;;;5024178;28;20525;-54
2023/03/02 02:20:47;;;;;;;32.73;11.33;;;0.60;1.00;;;;;;5022736;28;20219;-52
2023/03/02 02:23:18;;;;;;;20.53;11.20;;;0.50;1.00;;;;;;5029481;28;20187;-52
2023/03/02 02:25:54;;;;;;;20.37;10.77;;;0.50;1.00;;;;;;5024522;28;20445;-51
2023/03/02 02:28:41;;;;;;;21.40;11.43;;;0.50;1.00;;;;;;5025977;28;20445;-52
2023/03/02 02:31:10;;;;;;;24.70;10.87;;;0.50;1.00;;;;;;5025545;28;20992;-52
2023/03/02 02:33:37;;;;;;;23.97;10.83;;;0.50;1.00;;;;;;5023616;28;20450;-52
2023/03/02 02:36:08;;;;;;;26.27;11.60;;;0.50;1.00;;;;;;5024391;28;20506;-52
2023/03/02 02:38:36;;;;;;;21.53;10.70;;;0.40;1.00;;;;;;5025461;28;20440;-51
2023/03/02 02:41:05;;;;;;;21.83;10.67;;;0.40;1.00;;;;;;5022668;28;20557;-51
2023/03/02 02:43:32;;;;;;;23.10;12.03;;;0.40;1.00;;;;;;5025550;28;20482;-51
2023/03/02 02:45:59;;;;;;;27.63;11.97;;;0.40;1.00;;;;;;5022438;28;20447;-51
2023/03/02 02:48:29;;;;;;;23.60;10.67;;;0.50;1.00;;;;;;5023023;28;20462;-51
2023/03/02 02:50:59;;;;;;;24.30;11.73;;;0.50;6.00;;;;;;5026014;28;20904;-52
2023/03/02 02:53:48;;;;;;;22.30;11.17;;;0.50;6.50;;;;;;5023877;28;20446;-51
2023/03/02 02:56:15;;;;;;;20.77;10.30;;;0.50;7.80;;;;;;5026651;28;20454;-56
2023/03/02 02:58:52;;;;;;;34.40;10.80;;;0.50;6.50;;;;;;5029294;28;20441;-51
2023/03/02 03:01:24;;;;;;;28.37;11.77;;;0.40;1.00;;;;;;5026877;28;20463;-51
2023/03/02 03:03:53;;;;;;;36.50;11.90;;;0.40;1.00;;;;;;5027666;28;21043;-51
2023/03/02 03:06:24;;;;;;;27.20;11.80;;;0.40;1.00;;;;;;5028200;28;20800;-51
2023/03/02 03:08:54;;;;;;;36.27;12.30;;;0.40;1.00;;;;;;5029156;28;20442;-51
2023/03/02 03:11:27;;;;;;;34.40;11.77;;;0.40;1.00;;;;;;5026728;28;20443;-51
2023/03/02 03:14:09;;;;;;;26.20;11.47;;;0.40;1.00;;;;;;5028913;28;20444;-52
2023/03/02 03:16:37;;;;;;;28.43;11.33;;;0.40;1.70;;;;;;5026222;28;20452;-52
2023/03/02 03:19:24;;;;;;;28.60;12.70;;;0.40;6.30;;;;;;5027777;28;20541;-51
2023/03/02 03:21:52;;;;;;;22.73;11.43;;;0.40;11.20;;;;;;5031560;28;20958;-51
2023/03/02 03:24:19;;;;;;;28.80;11.83;;;0.40;14.40;;;;;;5028420;28;20526;-51
2023/03/02 03:26:45;;;;;;;24.27;13.00;;;0.50;20.30;;;;;;5028609;28;20473;-51
2023/03/02 03:29:12;;;;;;;38.97;12.40;;;0.50;22.10;;;;;;5026623;28;20452;-51
2023/03/02 03:31:38;;;;;;;26.27;12.23;;;0.40;21.10;;;;;;5027256;28;20647;-51
2023/03/02 03:34:04;;;;;;;32.67;12.20;;;0.40;19.40;;;;;;5027153;28;20438;-51
2023/03/02 03:36:31;;;;;;;25.70;11.47;;;0.40;17.40;;;;;;5027116;28;20194;-51
2023/03/02 03:38:57;;;;;;;40.53;12.40;;;0.40;9.70;;;;;;5028249;28;20954;-51
2023/03/02 03:41:24;;;;;;;23.97;10.97;;;0.40;4.90;;;;;;5023408;28;20799;-51
2023/03/02 03:43:50;;;;;;;25.27;11.73;;;0.30;1.00;;;;;;5028290;28;20842;-51
2023/03/02 03:46:16;;;;;;;27.90;12.80;;;0.30;2.40;;;;;;5026267;28;20453;-51
2023/03/02 03:48:42;;;;;;;29.73;11.90;;;0.30;7.40;;;;;;5023575;28;20446;-51
2023/03/02 03:51:08;;;;;;;28.73;12.90;;;0.40;14.60;;;;;;5026275;28;20435;-51
2023/03/02 03:53:34;;;;;;;28.87;13.03;;;0.40;19.60;;;;;;5021395;28;20238;-51
2023/03/02 03:56:01;;;;;;;32.20;13.47;;;0.40;23.30;;;;;;5029654;28;20437;-52
2023/03/02 03:58:27;;;;;;;27.37;13.03;;;0.40;25.00;;;;;;5027336;28;20226;-52
2023/03/02 04:00:53;;;;;;;27.83;12.87;;;0.40;23.40;;;;;;5028103;28;20470;-52
2023/03/02 04:03:19;;;;;;;28.47;13.13;;;0.30;22.10;;;;;;5027172;28;20663;-52
2023/03/02 04:05:45;;;;;;;29.63;13.87;;;0.40;23.80;;;;;;5028174;28;20228;-52
2023/03/02 04:08:11;;;;;;;32.13;14.57;;;0.40;27.20;;;;;;5027217;28;21014;-51
2023/03/02 04:10:37;;;;;;;26.73;12.47;;;0.40;30.00;;;;;;5025999;28;20438;-52
2023/03/02 04:13:03;;;;;;;28.90;13.33;;;0.40;33.90;;;;;;5028753;28;20457;-52
2023/03/02 04:15:30;;;;;;;24.77;12.80;;;0.40;32.80;;;;;;5026677;28;20198;-52
2023/03/02 04:17:55;;;;;;;28.93;13.30;;;0.40;35.00;;;;;;5027740;28;20587;-52
2023/03/02 04:20:22;;;;;;;30.17;12.63;;;0.50;40.30;;;;;;5026876;28;20466;-52
2023/03/02 04:22:50;;;;;;;27.60;12.43;;;0.50;37.00;;;;;;5030010;28;20266;-51
2023/03/02 04:25:18;;;;;;;34.70;14.33;;;0.50;31.40;;;;;;5027718;28;20525;-52
2023/03/02 04:27:45;;;;;;;28.80;13.63;;;0.40;29.20;;;;;;5024570;28;20442;-52
2023/03/02 04:30:12;;;;;;;26.03;11.27;;;0.50;29.30;;;;;;5027275;28;20450;-51
2023/03/02 04:32:38;;;;;;;28.80;12.50;;;0.50;26.10;;;;;;5025397;28;21068;-52
2023/03/02 04:35:04;;;;;;;28.97;12.77;;;0.40;20.30;;;;;;5027075;28;20470;-51
2023/03/02 04:37:30;;;;;;;34.03;12.13;;;0.40;18.50;;;;;;5026971;28;20234;-52
2023/03/02 04:39:55;;;;;;;26.90;11.77;;;0.40;13.90;;;;;;5026692;28;20473;-52
2023/03/02 04:42:22;;;;;;;27.07;13.30;;;0.40;10.70;;;;;;5024582;28;20485;-52
2023/03/02 04:44:47;;;;;;;31.60;11.83;;;0.40;13.40;;;;;;5025376;28;20953;-52
2023/03/02 04:47:13;;;;;;;31.67;11.50;;;0.40;10.80;;;;;;5026767;28;20438;-52
2023/03/02 04:49:39;;;;;;;27.70;12.40;;;0.40;12.90;;;;;;5024647;28;20200;-52
2023/03/02 04:52:05;;;;;;;32.40;13.33;;;0.30;15.00;;;;;;5025983;28;20639;-51
2023/03/02 04:54:31;;;;;;;28.33;12.27;;;0.30;16.60;;;;;;5027498;28;20190;-52
2023/03/02 04:56:57;;;;;;;26.40;11.23;;;0.30;18.80;;;;;;5029778;28;20519;-52
2023/03/02 04:59:25;;;;;;;26.63;11.33;;;0.30;15.40;;;;;;5023351;28;20564;-52
2023/03/02 05:01:53;;;;;;;20.20;9.73;;;0.30;11.00;;;;;;5023279;28;20970;-52
2023/03/02 05:04:19;;;;;;;27.50;10.40;;;0.30;9.00;;;;;;5026069;28;21001;-52
2023/03/02 05:06:46;;;;;;;40.53;13.43;;;0.20;1.80;;;;;;5024518;28;20518;-52
2023/03/02 05:09:11;;;;;;;28.73;12.27;;;0.10;1.00;;;;;;5026489;28;20214;-51
2023/03/02 05:11:37;;;;;;;28.13;12.27;;;0.10;1.00;;;;;;5026805;28;20454;-52
2023/03/02 05:14:07;;;;;;;24.87;11.80;;;0.10;1.00;;;;;;5026431;28;20977;-52
2023/03/02 05:16:34;;;;;;;26.63;11.63;;;0.10;1.00;;;;;;5026257;28;20450;-51
2023/03/02 05:19:01;;;;;;;28.03;12.00;;;0.10;1.00;;;;;;5027477;28;20429;-52
2023/03/02 05:21:27;;;;;;;27.93;12.90;;;0.10;1.00;;;;;;5024316;28;20458;-52
2023/03/02 05:23:53;;;;;;;28.10;13.43;;;0.10;1.00;;;;;;5025696;28;20480;-52
2023/03/02 05:26:19;;;;;;;25.93;12.00;;;0.10;1.00;;;;;;5029055;28;20223;-52
2023/03/02 05:28:45;;;;;;;32.17;13.50;;;0.20;1.00;;;;;;5028019;28;20455;-52
2023/03/02 05:31:18;;;;;;;28.53;12.77;;;0.20;1.00;;;;;;5030158;28;20547;-53
2023/03/02 05:33:44;;;;;;;30.90;13.57;;;0.20;5.90;;;;;;5025502;28;20449;-52
2023/03/02 05:36:10;;;;;;;32.27;14.40;;;0.30;11.10;;;;;;5025675;28;20437;-52
2023/03/02 05:38:35;;;;;;;33.40;14.00;;;0.30;12.70;;;;;;5025708;28;20184;-52
2023/03/02 05:41:02;;;;;;;31.90;13.70;;;0.30;17.40;;;;;;5023035;28;20309;-51
2023/03/02 05:43:28;;;;;;;33.43;13.90;;;0.40;18.80;;;;;;5026720;28;20238;-51
2023/03/02 05:45:59;;;;;;;35.43;14.03;;;0.40;19.30;;;;;;5024012;28;20439;-52
2023/03/02 05:48:28;;;;;;;33.27;14.80;;;0.40;14.50;;;;;;5023715;28;20576;-51
2023/03/02 05:50:53;;;;;;;31.57;14.60;;;0.30;9.20;;;;;;5023887;28;20474;-52
2023/03/02 05:53:19;;;;;;;39.60;14.20;;;0.30;7.10;;;;;;5025988;28;20455;-52
2023/03/02 05:55:45;;;;;;;35.00;14.93;;;0.30;9.20;;;;;;5029094;28;20184;-51
2023/03/02 05:58:16;;;;;;;33.03;14.27;;;0.40;15.20;;;;;;5025445;28;20195;-52
2023/03/02 06:00:43;;;;;;;37.23;14.60;;;0.40;20.50;;;;;;5027245;28;20683;-52
2023/03/02 06:03:09;;;;;;;34.00;14.40;;;0.40;20.20;;;;;;5027001;28;20540;-52
2023/03/02 06:05:34;;;;;;;36.87;14.70;;;0.30;19.10;;;;;;5024371;28;20537;-52
2023/03/02 06:08:00;;;;;;;47.30;14.40;;;0.30;15.60;;;;;;5022134;28;20856;-52
2023/03/02 06:10:26;;;;;;;43.43;15.37;;;0.30;15.10;;;;;;5024750;28;20190;-52
2023/03/02 06:12:52;;;;;;;30.73;13.73;;;0.30;6.90;;;;;;5025593;28;20483;-52
2023/03/02 06:15:18;;;;;;;36.57;14.17;;;0.30;8.20;;;;;;5024851;28;20185;-52
2023/03/02 06:17:44;;;;;;;33.33;15.00;;;0.30;12.60;;;;;;5025118;28;20200;-51
2023/03/02 06:20:10;;;;;;;34.27;14.40;;;0.30;17.20;;;;;;5025602;28;20484;-52
2023/03/02 06:22:41;;;;;;;35.67;14.23;;;0.40;22.70;;;;;;5023644;28;20653;-52
2023/03/02 06:25:22;;;;;;;44.50;14.73;;;0.50;28.70;;;;;;5022390;28;20447;-52
2023/03/02 06:27:52;;;;;;;36.43;15.20;;;0.40;22.50;;;;;;5025844;28;20449;-52
2023/03/02 06:30:21;;;;;;;37.47;16.07;;;0.40;19.60;;;;;;5024387;28;20470;-52
2023/03/02 06:32:47;;;;;;;45.67;15.87;;;0.40;20.00;;;;;;5030398;28;20528;-52
2023/03/02 06:35:13;;;;;;;37.13;15.27;;;0.40;20.00;;;;;;5029012;28;20518;-52
2023/03/02 06:37:39;;;;;;;32.70;15.37;;;0.40;18.90;;;;;;5026448;28;20188;-52
2023/03/02 06:40:14;;;;;;;44.73;17.23;;;0.40;19.90;;;;;;5028425;28;21023;-52
2023/03/02 06:42:41;;;;;;;41.67;17.00;;;0.40;22.50;;;;;;5027561;28;20443;-52
2023/03/02 06:45:08;;;;;;;44.33;18.03;;;0.50;28.30;;;;;;5029088;28;20438;-52
2023/03/02 06:47:34;;;;;;;42.60;16.93;;;0.50;29.10;;;;;;5028966;28;20456;-52
2023/03/02 06:49:59;;;;;;;38.00;16.70;;;0.50;25.40;;;;;;5027716;28;20807;-52
2023/03/02 06:52:26;;;;;;;37.30;16.60;;;0.50;25.20;;;;;;5029657;28;20271;-52
2023/03/02 06:54:52;;;;;;;40.40;17.23;;;0.60;25.90;;;;;;5027654;28;20192;-52
2023/03/02 06:57:17;;;;;;;41.27;17.10;;;0.50;23.80;;;;;;5029126;28;20441;-52
2023/03/02 06:59:43;;;;;;;42.07;17.07;;;0.60;26.10;;;;;;5027597;28;20226;-52
2023/03/02 07:02:10;;;;;;;43.47;17.00;;;0.60;29.90;;;;;;5027052;28;20229;-52
2023/03/02 07:04:36;;;;;;;44.17;16.67;;;0.60;26.90;;;;;;5028489;28;20193;-52
2023/03/02 07:07:01;;;;;;;36.20;15.53;;;0.60;18.90;;;;;;5028193;28;20435;-51
2023/03/02 07:09:29;;;;;;;43.87;15.20;;;0.60;14.30;;;;;;5030201;28;20566;-52
2023/03/02 07:11:55;;;;;;;55.57;16.77;;;0.60;16.30;;;;;;5025884;28;20203;-52
2023/03/02 07:14:21;;;;;;;34.87;15.23;;;0.60;19.70;;;;;;5028039;28;20437;-52
2023/03/02 07:16:46;;;;;;;35.53;14.50;;;0.70;17.30;;;;;;5027899;28;20477;-52
2023/03/02 07:19:12;;;;;;;38.30;16.20;;;0.70;14.00;;;;;;5028066;28;20262;-52
2023/03/02 07:21:38;;;;;;;42.37;16.90;;;0.70;11.20;;;;;;5025008;28;20198;-52
2023/03/02 07:24:04;;;;;;;40.07;16.03;;;0.70;7.70;;;;;;5025625;28;20442;-52
2023/03/02 07:26:30;;;;;;;39.10;16.40;;;0.80;11.90;;;;;;5030508;28;20202;-51
2023/03/02 07:28:58;;;;;;;47.90;15.90;;;0.80;15.40;;;;;;5024841;28;20442;-52
2023/03/02 07:31:24;;;;;;;48.47;17.40;;;0.90;20.50;;;;;;5027008;28;20198;-52
2023/03/02 07:33:50;;;;;;;41.40;16.33;;;0.90;21.80;;;;;;5028373;28;20799;-52
2023/03/02 07:36:15;;;;;;;40.90;18.10;;;0.90;18.00;;;;;;5027981;28;20450;-52
2023/03/02 07:38:41;;;;;;;37.73;16.63;;;0.90;13.10;;;;;;5026372;28;20179;-52
2023/03/02 07:41:08;;;;;;;41.40;16.00;;;1.00;15.70;;;;;;5025683;28;20617;-52
2023/03/02 07:43:35;;;;;;;40.73;16.20;;;1.00;6.20;;;;;;5025229;28;20233;-52
2023/03/02 07:46:01;;;;;;;47.13;17.63;;;1.00;1.00;;;;;;5022970;28;20446;-52
2023/03/02 07:48:27;;;;;;;36.27;16.67;;;1.00;3.00;;;;;;5026913;28;21045;-52
2023/03/02 07:50:59;;;;;;;38.20;15.73;;;1.10;3.60;;;;;;5028332;28;20535;-52
2023/03/02 07:53:26;;;;;;;37.87;17.00;;;1.20;5.10;;;;;;5026259;28;20191;-52
2023/03/02 07:55:51;;;;;;;36.03;15.57;;;1.20;4.50;;;;;;5028290;28;20444;-52
2023/03/02 07:58:17;;;;;;;40.37;16.77;;;1.20;1.00;;;;;;5026481;28;20441;-52
2023/03/02 08:00:43;;;;;;;41.80;16.33;;;1.20;1.00;;;;;;5026000;28;20582;-52
2023/03/02 08:03:08;;;;;;;34.40;15.37;;;1.30;1.00;;;;;;5023064;28;20199;-51
2023/03/02 08:05:34;;;;;;;39.43;14.63;;;1.30;1.00;;;;;;5030401;28;20666;-52
2023/03/02 08:08:00;;;;;;;49.63;17.70;;;1.40;1.00;;;;;;5032077;28;20183;-51
2023/03/02 08:10:25;;;;;;;37.23;16.37;;;1.30;1.00;;;;;;5034823;28;20187;-52
2023/03/02 08:12:51;;;;;;;40.60;16.13;;;1.40;1.00;;;;;;5034857;28;20187;-52
2023/03/02 08:15:17;;;;;;;36.83;15.47;;;1.30;1.00;;;;;;5028837;28;20246;-52
2023/03/02 08:17:42;;;;;;;41.70;16.30;;;1.40;1.00;;;;;;5015825;28;20223;-52
2023/03/02 08:20:09;;;;;;;45.60;19.13;;;1.40;1.00;;;;;;5029945;28;20426;-51
2023/03/02 08:22:35;;;;;;;39.30;18.50;;;1.40;1.00;;;;;;5033948;28;20545;-51
2023/03/02 08:25:00;;;;;;;39.67;17.47;;;1.50;1.00;;;;;;5035578;28;20410;-51
2023/03/02 08:27:26;;;;;;;34.50;15.93;;;1.50;1.00;;;;;;5035956;28;20860;-51
2023/03/02 08:29:53;;;;;;;56.33;18.70;;;1.60;1.00;;;;;;5034460;28;20190;-51
2023/03/02 08:32:19;;;;;;;40.87;16.60;;;1.50;1.00;;;;;;5025225;28;20202;-52
2023/03/02 08:34:44;;;;;;;42.17;16.20;;;1.50;1.00;;;;;;5032079;28;20449;-53
2023/03/02 08:37:10;;;;;;;51.33;16.93;;;1.50;1.00;;;;;;5034096;28;20434;-52
2023/03/02 08:39:36;;;;;;;39.57;15.70;;;1.40;1.00;;;;;;5024966;28;20230;-51
2023/03/02 08:42:01;;;;;;;36.37;16.50;;;1.50;1.00;;;;;;5033028;28;20187;-52
2023/03/02 08:44:27;;;;;;;37.20;16.13;;;1.50;1.00;;;;;;5028805;28;20714;-52
2023/03/02 08:46:53;;;;;;;42.93;17.43;;;1.60;1.00;;;;;;5022002;28;20273;-52
2023/03/02 08:49:19;;;;;;;35.60;15.40;;;1.60;1.00;;;;;;5015080;28;20641;-51
2023/03/02 08:51:47;;;;;;;42.53;17.27;;;1.60;1.00;;;;;;5023191;28;20525;-51
2023/03/02 08:54:13;;;;;;;42.00;16.63;;;1.70;1.00;;;;;;5032533;28;20196;-51
2023/03/02 08:56:40;;;;;;;50.43;15.97;;;1.70;1.00;;;;;;5032811;28;20442;-51
2023/03/02 08:59:11;;;;;;;33.70;15.67;;;1.80;1.00;;;;;;5033720;28;20188;-51
2023/03/02 09:01:38;;;;;;;37.97;17.30;;;1.80;1.00;;;;;;5033037;28;20471;-51
2023/03/02 09:04:05;;;;;;;39.23;16.80;;;1.70;1.00;;;;;;5031222;28;20453;-51
2023/03/02 09:06:35;;;;;;;39.60;15.77;;;1.80;1.00;;;;;;5031738;28;20444;-51
2023/03/02 09:09:01;;;;;;;33.00;16.10;;;1.80;1.00;;;;;;5031404;28;20533;-51
2023/03/02 09:11:27;;;;;;;37.60;15.80;;;1.90;1.00;;;;;;5023543;28;20525;-51
2023/03/02 09:13:53;;;;;;;35.17;15.67;;;1.90;1.00;;;;;;5025160;28;20671;-51
2023/03/02 09:16:19;;;;;;;42.40;16.20;;;2.00;1.00;;;;;;5022592;28;20651;-51
2023/03/02 09:18:46;;;;;;;31.37;15.60;;;2.00;1.00;;;;;;5025443;28;20526;-52
2023/03/02 09:21:12;;;;;;;63.77;14.57;;;2.00;1.00;;;;;;5026615;28;20215;-51
2023/03/02 09:23:37;;;;;;;33.23;13.47;;;2.00;1.00;;;;;;5025897;28;20959;-52
2023/03/02 09:26:04;;;;;;;34.23;14.83;;;2.00;1.00;;;;;;5026093;28;20670;-51
2023/03/02 09:28:30;;;;;;;31.53;15.60;;;2.10;1.00;;;;;;5026269;28;20371;-51
2023/03/02 09:31:01;;;;;;;30.70;15.00;;;2.10;1.00;;;;;;5024717;28;20446;-52
2023/03/02 09:33:28;;;;;;;33.60;15.70;;;2.20;1.00;;;;;;5024147;28;20437;-51
2023/03/02 09:35:54;;;;;;;31.77;13.83;;;2.30;1.00;;;;;;5023852;28;20449;-52
2023/03/02 09:38:19;;;;;;;33.90;15.93;;;2.30;99.90;;;;;;5025883;28;20434;-51
2023/03/02 09:40:48;;;;;;;37.57;15.57;;;2.30;99.90;;;;;;5025089;28;20216;-51
2023/03/02 09:43:43;;;;;;;38.43;16.50;;;2.30;99.90;;;;;;5024852;28;20239;-51
2023/03/02 09:46:37;;;;;;;34.87;16.37;;;2.40;99.90;;;;;;5023799;28;20457;-51
2023/03/02 09:49:42;;;;;;;33.57;15.73;;;2.40;99.90;;;;;;5024171;28;20500;-51
2023/03/02 09:52:34;;;;;;;36.97;15.50;;;2.40;99.90;;;;;;5004774;28;20451;-51
2023/03/02 09:55:18;;;;;;;32.83;15.33;;;2.50;99.90;;;;;;5024588;28;20470;-51
2023/03/02 09:57:45;;;;;;;34.87;16.13;;;2.60;99.90;;;;;;5024082;28;20447;-51
2023/03/02 10:00:14;;;;;;;35.13;16.90;;;2.60;99.90;;;;;;5025988;28;20462;-51
2023/03/02 10:02:53;;;;;;;31.40;16.33;;;2.60;99.90;;;;;;5025456;28;20432;-51
2023/03/02 10:05:27;;;;;;;32.30;16.20;;;2.70;77.90;;;;;;5026265;28;20488;-51
2023/03/02 10:07:52;;;;;;;36.70;17.67;;;2.60;51.50;;;;;;5032013;28;20441;-51
2023/03/02 10:10:45;;;;;;;39.43;16.60;;;2.60;63.40;;;;;;5032302;28;20952;-51
2023/03/02 10:13:25;;;;;;;33.43;15.63;;;2.60;46.60;;;;;;5032536;28;20553;-51
2023/03/02 10:15:57;;;;;;;30.77;16.83;;;2.70;96.80;;;;;;5031769;28;20441;-51
2023/03/02 10:18:35;;;;;;;33.60;16.87;;;2.90;90.80;;;;;;5031329;28;20434;-51
2023/03/02 10:21:31;;;;;;;34.03;16.30;;;3.00;22.30;;;;;;5028950;28;20473;-51
2023/03/02 10:24:10;;;;;;;33.03;16.67;;;2.90;1.00;;;;;;5030029;28;20525;-51
2023/03/02 10:26:41;;;;;;;34.50;16.83;;;2.90;99.90;;;;;;5029098;28;20449;-51
2023/03/02 10:29:46;;;;;;;35.30;15.90;;;2.90;99.90;;;;;;5030094;28;21194;-51
2023/03/02 10:32:19;;;;;;;32.93;16.73;;;2.80;1.00;;;;;;5032423;28;20971;-51
2023/03/02 10:34:45;;;;;;;33.97;16.80;;;2.70;99.90;;;;;;5031515;28;23374;-51
2023/03/02 10:37:17;;;;;;;30.93;16.13;;;2.80;99.90;;;;;;5032435;28;20491;-51
2023/03/02 10:39:43;;;;;;;30.50;15.70;;;2.80;99.90;;;;;;5032263;28;20488;-51
2023/03/02 10:42:21;;;;;;;30.80;17.40;;;2.70;99.90;;;;;;5031186;28;20797;-51
2023/03/02 10:45:15;;;;;;;31.97;16.00;;;2.70;99.90;;;;;;5029150;28;20573;-51
2023/03/02 10:47:41;;;;;;;37.10;16.30;;;2.80;1.00;;;;;;5029823;28;20438;-51
2023/03/02 10:50:20;;;;;;;31.17;16.20;;;2.80;1.00;;;;;;5031195;28;20787;-51
2023/03/02 10:52:49;;;;;;;29.53;15.67;;;2.80;1.00;;;;;;5030935;28;20191;-51
2023/03/02 10:55:16;;;;;;;33.87;16.80;;;2.90;1.00;;;;;;5031749;28;21007;-52
2023/03/02 10:57:44;;;;;;;31.80;16.77;;;2.80;1.00;;;;;;5030731;28;20467;-51
2023/03/02 11:00:14;;;;;;;37.83;15.93;;;2.80;1.00;;;;;;5030165;28;20478;-52
2023/03/02 11:02:58;;;;;;;34.83;15.67;;;2.80;1.00;;;;;;5028712;28;20531;-52
2023/03/02 11:05:34;;;;;;;25.73;13.50;;;2.90;1.00;;;;;;5032957;28;20976;-51
2023/03/02 11:08:09;;;;;;;30.27;15.20;;;2.90;99.90;;;;;;5031069;28;20466;-51
2023/03/02 11:10:40;;;;;;;30.17;14.33;;;2.90;99.90;;;;;;5031035;28;20524;-51
2023/03/02 11:13:27;;;;;;;29.90;13.93;;;2.70;99.90;;;;;;5028543;28;20445;-51
2023/03/02 11:16:20;;;;;;;31.60;14.60;;;2.80;1.00;;;;;;5032336;28;20926;-51
2023/03/02 11:18:58;;;;;;;26.63;13.50;;;2.80;1.00;;;;;;5024257;28;20433;-51
2023/03/02 11:21:35;;;;;;;27.80;14.53;;;2.90;1.00;;;;;;5027823;28;20474;-51
2023/03/02 11:24:07;;;;;;;27.70;14.40;;;3.10;1.00;;;;;;5027563;28;20853;-51
2023/03/02 11:26:52;;;;;;;26.70;13.67;;;3.00;99.90;;;;;;5028435;28;20489;-51
2023/03/02 11:29:40;;;;;;;33.60;13.73;;;3.00;99.90;;;;;;5025879;28;20515;-51
2023/03/02 11:32:20;;;;;;;28.30;13.60;;;3.10;1.00;;;;;;5025239;28;20438;-54
2023/03/02 11:34:50;;;;;;;25.47;13.17;;;3.20;1.00;;;;;;5028340;28;20497;-52
2023/03/02 11:37:28;;;;;;;23.27;13.00;;;3.30;99.90;;;;;;5026658;28;20466;-52
2023/03/02 11:40:16;;;;;;;27.53;13.63;;;3.20;99.90;;;;;;5027965;28;20481;-52
2023/03/02 11:42:43;;;;;;;26.83;12.60;;;3.20;99.90;;;;;;5026885;28;20441;-52
2023/03/02 11:45:12;;;;;;;25.13;12.53;;;3.30;99.90;;;;;;5029865;28;20489;-52
2023/03/02 11:47:41;;;;;;;23.37;12.23;;;3.30;99.90;;;;;;5027467;28;20530;-52
2023/03/02 11:50:13;;;;;;;23.07;11.50;;;3.30;99.90;;;;;;5028607;28;20520;-52
2023/03/02 11:52:43;;;;;;;20.97;11.03;;;3.30;99.90;;;;;;5027968;28;20945;-52
2023/03/02 11:55:11;;;;;;;23.07;10.90;;;3.40;99.90;;;;;;5026383;28;20447;-52
2023/03/02 11:57:47;;;;;;;23.80;11.63;;;3.50;99.90;;;;;;5027995;28;20446;-52
2023/03/02 12:00:40;;;;;;;22.93;11.47;;;3.50;99.90;;;;;;5027662;28;20533;-52
2023/03/02 12:03:14;;;;;;;20.27;10.87;;;3.60;1.00;;;;;;5028302;28;20517;-51
2023/03/02 12:05:43;;;;;;;22.47;12.30;;;3.60;1.00;;;;;;5026838;28;20459;-52
2023/03/02 12:08:18;;;;;;;22.00;11.90;;;3.50;98.50;;;;;;5027956;28;20532;-52
2023/03/02 12:11:00;;;;;;;23.10;11.93;;;3.50;99.90;;;;;;5027837;28;20442;-51
2023/03/02 12:13:34;;;;;;;25.90;11.77;;;3.50;99.90;;;;;;5027042;28;20439;-52
2023/03/02 12:16:00;;;;;;;22.10;10.63;;;3.50;99.90;;;;;;5025971;28;20434;-52
2023/03/02 12:18:42;;;;;;;24.23;10.97;;;3.50;1.00;;;;;;5028112;28;20435;-52
2023/03/02 12:21:22;;;;;;;21.37;9.40;;;3.50;99.90;;;;;;5029635;28;20511;-51
2023/03/02 12:23:48;;;;;;;17.67;9.60;;;3.60;1.00;;;;;;5027539;28;20530;-52
2023/03/02 12:26:19;;;;;;;22.03;10.67;;;3.70;1.00;;;;;;5025930;28;20518;-52
2023/03/02 12:29:10;;;;;;;19.43;9.80;;;3.70;1.00;;;;;;5027760;28;20195;-52
2023/03/02 12:31:47;;;;;;;21.37;9.77;;;3.80;1.00;;;;;;5027562;28;20476;-52
2023/03/02 12:34:37;;;;;;;18.97;9.97;;;3.90;1.00;;;;;;5027675;28;20435;-52
2023/03/02 12:37:22;;;;;;;20.07;10.07;;;4.10;1.00;;;;;;5024487;28;20478;-52
2023/03/02 12:39:51;;;;;;;20.23;9.87;;;4.10;1.00;;;;;;5025690;28;20484;-52
2023/03/02 12:42:31;;;;;;;18.03;9.53;;;4.10;1.00;;;;;;5026366;28;20443;-52
2023/03/02 12:45:02;;;;;;;17.17;9.27;;;4.20;99.90;;;;;;5023614;28;20829;-52
2023/03/02 12:47:29;;;;;;;20.00;10.33;;;4.20;1.00;;;;;;5026596;28;20447;-52
2023/03/02 12:49:56;;;;;;;19.37;9.77;;;4.10;99.90;;;;;;5026281;28;20443;-52
2023/03/02 12:52:28;;;;;;;17.17;9.57;;;4.10;99.90;;;;;;5027161;28;20453;-52
2023/03/02 12:55:03;;;;;;;15.60;8.97;;;4.20;99.90;;;;;;5025419;28;20785;-52